sensor_id;sensor_type;location;lat;lon;timestamp;P1;durP1;ratioP1;P2;durP2;ratioP2
57341;SDS011;43175;51.002;18.316;2022-07-30T00:01:51;9.70;;;3.70;;
57341;SDS011;43175;51.002;18.316;2022-07-30T00:04:35;11.40;;;3.90;;
57341;SDS011;43175;51.002;18.316;2022-07-30T00:07:19;10.00;;;3.70;;
57341;SDS011;43175;51.002;18.316;2022-07-30T00:10:04;10.10;;;3.70;;
57341;SDS011;43175;51.002;18.316;2022-07-30T00:12:48;11.50;;;3.80;;
57341;SDS011;43175;51.002;18.316;2022-07-30T00:15:33;10.80;;;3.60;;
57341;SDS011;43175;51.002;18.316;2022-07-30T00:18:17;10.30;;;3.70;;
57341;SDS011;43175;51.002;18.316;2022-07-30T00:21:01;13.80;;;3.90;;
57341;SDS011;43175;51.002;18.316;2022-07-30T00:23:45;11.30;;;3.60;;
57341;SDS011;43175;51.002;18.316;2022-07-30T00:26:29;9.10;;;3.60;;
57341;SDS011;43175;51.002;18.316;2022-07-30T00:29:14;10.70;;;4.00;;
57341;SDS011;43175;51.002;18.316;2022-07-30T00:31:58;10.70;;;4.10;;
57341;SDS011;43175;51.002;18.316;2022-07-30T00:34:42;9.30;;;3.60;;
57341;SDS011;43175;51.002;18.316;2022-07-30T00:37:26;10.50;;;3.60;;
57341;SDS011;43175;51.002;18.316;2022-07-30T00:40:10;11.70;;;3.80;;
57341;SDS011;43175;51.002;18.316;2022-07-30T00:42:55;11.80;;;4.20;;
57341;SDS011;43175;51.002;18.316;2022-07-30T00:45:39;12.60;;;3.60;;
57341;SDS011;43175;51.002;18.316;2022-07-30T00:48:23;9.10;;;3.60;;
57341;SDS011;43175;51.002;18.316;2022-07-30T00:51:07;9.80;;;3.80;;
57341;SDS011;43175;51.002;18.316;2022-07-30T00:53:52;10.20;;;3.70;;
57341;SDS011;43175;51.002;18.316;2022-07-30T00:56:36;10.20;;;3.50;;
57341;SDS011;43175;51.002;18.316;2022-07-30T00:59:20;11.40;;;3.70;;
57341;SDS011;43175;51.002;18.316;2022-07-30T01:02:05;11.20;;;3.90;;
57341;SDS011;43175;51.002;18.316;2022-07-30T01:04:49;10.90;;;3.70;;
57341;SDS011;43175;51.002;18.316;2022-07-30T01:07:33;9.80;;;3.70;;
57341;SDS011;43175;51.002;18.316;2022-07-30T01:10:18;11.50;;;3.70;;
57341;SDS011;43175;51.002;18.316;2022-07-30T01:13:02;12.70;;;3.90;;
57341;SDS011;43175;51.002;18.316;2022-07-30T01:15:47;10.70;;;3.60;;
57341;SDS011;43175;51.002;18.316;2022-07-30T01:18:31;12.90;;;3.70;;
57341;SDS011;43175;51.002;18.316;2022-07-30T01:21:36;10.50;;;3.70;;
57341;SDS011;43175;51.002;18.316;2022-07-30T01:27:06;11.10;;;3.80;;
57341;SDS011;43175;51.002;18.316;2022-07-30T01:29:51;10.70;;;3.60;;
57341;SDS011;43175;51.002;18.316;2022-07-30T01:32:38;10.90;;;3.70;;
57341;SDS011;43175;51.002;18.316;2022-07-30T01:35:23;11.40;;;3.70;;
57341;SDS011;43175;51.002;18.316;2022-07-30T01:38:09;10.90;;;3.70;;
57341;SDS011;43175;51.002;18.316;2022-07-30T01:40:55;10.70;;;3.80;;
57341;SDS011;43175;51.002;18.316;2022-07-30T01:43:39;12.10;;;3.80;;
57341;SDS011;43175;51.002;18.316;2022-07-30T01:46:24;9.00;;;3.60;;
57341;SDS011;43175;51.002;18.316;2022-07-30T01:49:09;11.70;;;3.50;;
57341;SDS011;43175;51.002;18.316;2022-07-30T01:51:54;9.40;;;3.70;;
57341;SDS011;43175;51.002;18.316;2022-07-30T01:54:40;9.50;;;3.60;;
57341;SDS011;43175;51.002;18.316;2022-07-30T01:57:27;15.00;;;3.80;;
57341;SDS011;43175;51.002;18.316;2022-07-30T02:00:12;11.10;;;3.70;;
57341;SDS011;43175;51.002;18.316;2022-07-30T02:02:57;13.20;;;3.80;;
57341;SDS011;43175;51.002;18.316;2022-07-30T02:05:42;11.40;;;3.50;;
57341;SDS011;43175;51.002;18.316;2022-07-30T02:08:35;10.10;;;3.70;;
57341;SDS011;43175;51.002;18.316;2022-07-30T02:11:22;10.90;;;3.70;;
57341;SDS011;43175;51.002;18.316;2022-07-30T02:14:27;12.00;;;3.90;;
57341;SDS011;43175;51.002;18.316;2022-07-30T02:17:15;9.80;;;3.50;;
57341;SDS011;43175;51.002;18.316;2022-07-30T02:20:04;10.70;;;3.40;;
57341;SDS011;43175;51.002;18.316;2022-07-30T02:22:50;11.80;;;3.70;;
57341;SDS011;43175;51.002;18.316;2022-07-30T02:25:37;9.30;;;3.40;;
57341;SDS011;43175;51.002;18.316;2022-07-30T02:28:26;12.30;;;3.50;;
57341;SDS011;43175;51.002;18.316;2022-07-30T02:31:11;11.50;;;3.60;;
57341;SDS011;43175;51.002;18.316;2022-07-30T02:33:57;11.20;;;4.00;;
57341;SDS011;43175;51.002;18.316;2022-07-30T02:36:42;10.90;;;3.70;;
57341;SDS011;43175;51.002;18.316;2022-07-30T02:39:28;10.80;;;3.50;;
57341;SDS011;43175;51.002;18.316;2022-07-30T02:42:13;10.90;;;3.50;;
57341;SDS011;43175;51.002;18.316;2022-07-30T02:44:58;10.10;;;3.20;;
57341;SDS011;43175;51.002;18.316;2022-07-30T02:47:47;11.40;;;3.20;;
57341;SDS011;43175;51.002;18.316;2022-07-30T02:50:34;10.10;;;3.20;;
57341;SDS011;43175;51.002;18.316;2022-07-30T02:53:19;12.10;;;3.60;;
57341;SDS011;43175;51.002;18.316;2022-07-30T02:56:05;9.40;;;3.20;;
57341;SDS011;43175;51.002;18.316;2022-07-30T02:58:51;9.20;;;3.30;;
57341;SDS011;43175;51.002;18.316;2022-07-30T03:01:36;9.50;;;3.20;;
57341;SDS011;43175;51.002;18.316;2022-07-30T03:04:20;9.00;;;3.30;;
57341;SDS011;43175;51.002;18.316;2022-07-30T03:07:05;9.50;;;3.40;;
57341;SDS011;43175;51.002;18.316;2022-07-30T03:09:49;10.40;;;3.30;;
57341;SDS011;43175;51.002;18.316;2022-07-30T03:12:36;9.70;;;3.20;;
57341;SDS011;43175;51.002;18.316;2022-07-30T03:15:21;10.70;;;3.60;;
57341;SDS011;43175;51.002;18.316;2022-07-30T03:18:05;10.10;;;3.60;;
57341;SDS011;43175;51.002;18.316;2022-07-30T03:20:52;10.00;;;3.20;;
57341;SDS011;43175;51.002;18.316;2022-07-30T03:23:37;11.10;;;3.30;;
57341;SDS011;43175;51.002;18.316;2022-07-30T03:26:23;10.50;;;3.50;;
57341;SDS011;43175;51.002;18.316;2022-07-30T03:29:08;12.40;;;3.30;;
57341;SDS011;43175;51.002;18.316;2022-07-30T03:31:53;9.00;;;3.20;;
57341;SDS011;43175;51.002;18.316;2022-07-30T03:34:38;9.60;;;3.30;;
57341;SDS011;43175;51.002;18.316;2022-07-30T03:37:23;10.00;;;3.30;;
57341;SDS011;43175;51.002;18.316;2022-07-30T03:40:10;9.70;;;3.30;;
57341;SDS011;43175;51.002;18.316;2022-07-30T03:42:54;9.90;;;3.40;;
57341;SDS011;43175;51.002;18.316;2022-07-30T03:45:40;9.50;;;3.20;;
57341;SDS011;43175;51.002;18.316;2022-07-30T03:48:25;9.20;;;3.30;;
57341;SDS011;43175;51.002;18.316;2022-07-30T03:51:10;11.80;;;3.50;;
57341;SDS011;43175;51.002;18.316;2022-07-30T03:53:54;11.60;;;3.40;;
57341;SDS011;43175;51.002;18.316;2022-07-30T03:56:39;13.20;;;3.30;;
57341;SDS011;43175;51.002;18.316;2022-07-30T03:59:24;12.20;;;3.20;;
57341;SDS011;43175;51.002;18.316;2022-07-30T04:02:08;12.20;;;3.60;;
57341;SDS011;43175;51.002;18.316;2022-07-30T04:04:53;11.70;;;3.20;;
57341;SDS011;43175;51.002;18.316;2022-07-30T04:07:37;9.70;;;3.40;;
57341;SDS011;43175;51.002;18.316;2022-07-30T04:10:22;11.70;;;3.10;;
57341;SDS011;43175;51.002;18.316;2022-07-30T04:13:06;12.30;;;3.50;;
57341;SDS011;43175;51.002;18.316;2022-07-30T04:18:46;12.00;;;3.30;;
57341;SDS011;43175;51.002;18.316;2022-07-30T04:21:31;9.20;;;3.20;;
57341;SDS011;43175;51.002;18.316;2022-07-30T04:24:17;10.80;;;3.30;;
57341;SDS011;43175;51.002;18.316;2022-07-30T04:27:02;9.60;;;3.20;;
57341;SDS011;43175;51.002;18.316;2022-07-30T04:29:46;10.20;;;3.40;;
57341;SDS011;43175;51.002;18.316;2022-07-30T04:32:31;11.90;;;3.40;;
57341;SDS011;43175;51.002;18.316;2022-07-30T04:35:15;9.80;;;3.40;;
57341;SDS011;43175;51.002;18.316;2022-07-30T04:37:59;11.20;;;3.30;;
57341;SDS011;43175;51.002;18.316;2022-07-30T04:40:46;9.00;;;3.20;;
57341;SDS011;43175;51.002;18.316;2022-07-30T04:43:30;12.10;;;3.30;;
57341;SDS011;43175;51.002;18.316;2022-07-30T04:46:14;9.40;;;3.30;;
57341;SDS011;43175;51.002;18.316;2022-07-30T04:48:59;14.40;;;3.50;;
57341;SDS011;43175;51.002;18.316;2022-07-30T04:51:43;11.00;;;3.30;;
57341;SDS011;43175;51.002;18.316;2022-07-30T04:54:32;9.30;;;3.40;;
57341;SDS011;43175;51.002;18.316;2022-07-30T04:57:21;10.60;;;3.30;;
57341;SDS011;43175;51.002;18.316;2022-07-30T05:00:07;11.00;;;3.40;;
57341;SDS011;43175;51.002;18.316;2022-07-30T05:02:52;12.20;;;3.20;;
57341;SDS011;43175;51.002;18.316;2022-07-30T05:05:36;11.70;;;3.30;;
57341;SDS011;43175;51.002;18.316;2022-07-30T05:08:21;12.00;;;3.20;;
57341;SDS011;43175;51.002;18.316;2022-07-30T05:11:11;12.00;;;3.40;;
57341;SDS011;43175;51.002;18.316;2022-07-30T05:13:56;10.90;;;3.50;;
57341;SDS011;43175;51.002;18.316;2022-07-30T05:16:40;10.30;;;3.50;;
57341;SDS011;43175;51.002;18.316;2022-07-30T05:19:24;10.40;;;3.60;;
57341;SDS011;43175;51.002;18.316;2022-07-30T05:22:08;9.80;;;3.30;;
57341;SDS011;43175;51.002;18.316;2022-07-30T05:24:53;9.40;;;3.20;;
57341;SDS011;43175;51.002;18.316;2022-07-30T05:27:37;10.60;;;3.60;;
57341;SDS011;43175;51.002;18.316;2022-07-30T05:30:21;10.80;;;3.60;;
57341;SDS011;43175;51.002;18.316;2022-07-30T05:33:05;11.30;;;3.70;;
57341;SDS011;43175;51.002;18.316;2022-07-30T05:35:49;13.20;;;4.00;;
57341;SDS011;43175;51.002;18.316;2022-07-30T05:38:34;10.40;;;3.50;;
57341;SDS011;43175;51.002;18.316;2022-07-30T05:41:18;11.90;;;3.90;;
57341;SDS011;43175;51.002;18.316;2022-07-30T05:44:02;12.70;;;3.90;;
57341;SDS011;43175;51.002;18.316;2022-07-30T05:46:46;10.50;;;3.50;;
57341;SDS011;43175;51.002;18.316;2022-07-30T05:49:30;11.20;;;3.80;;
57341;SDS011;43175;51.002;18.316;2022-07-30T05:52:15;13.20;;;4.10;;
57341;SDS011;43175;51.002;18.316;2022-07-30T05:54:59;12.40;;;4.00;;
57341;SDS011;43175;51.002;18.316;2022-07-30T05:57:43;10.00;;;3.60;;
57341;SDS011;43175;51.002;18.316;2022-07-30T06:00:27;11.90;;;3.70;;
57341;SDS011;43175;51.002;18.316;2022-07-30T06:03:11;10.90;;;3.80;;
57341;SDS011;43175;51.002;18.316;2022-07-30T06:05:55;11.40;;;3.80;;
57341;SDS011;43175;51.002;18.316;2022-07-30T06:08:39;9.60;;;3.80;;
57341;SDS011;43175;51.002;18.316;2022-07-30T06:11:23;10.50;;;3.90;;
57341;SDS011;43175;51.002;18.316;2022-07-30T06:14:07;12.00;;;4.10;;
57341;SDS011;43175;51.002;18.316;2022-07-30T06:16:51;11.40;;;3.90;;
57341;SDS011;43175;51.002;18.316;2022-07-30T06:19:36;11.40;;;3.80;;
57341;SDS011;43175;51.002;18.316;2022-07-30T06:22:20;10.90;;;4.00;;
57341;SDS011;43175;51.002;18.316;2022-07-30T06:25:04;14.00;;;3.90;;
57341;SDS011;43175;51.002;18.316;2022-07-30T06:27:49;11.80;;;4.20;;
57341;SDS011;43175;51.002;18.316;2022-07-30T06:30:34;10.10;;;3.90;;
57341;SDS011;43175;51.002;18.316;2022-07-30T06:33:18;11.80;;;4.00;;
57341;SDS011;43175;51.002;18.316;2022-07-30T06:36:02;10.40;;;3.90;;
57341;SDS011;43175;51.002;18.316;2022-07-30T06:38:46;11.70;;;4.30;;
57341;SDS011;43175;51.002;18.316;2022-07-30T06:41:30;14.80;;;4.60;;
57341;SDS011;43175;51.002;18.316;2022-07-30T06:44:14;12.90;;;4.50;;
57341;SDS011;43175;51.002;18.316;2022-07-30T06:46:58;11.50;;;4.40;;
57341;SDS011;43175;51.002;18.316;2022-07-30T06:49:43;13.70;;;5.70;;
57341;SDS011;43175;51.002;18.316;2022-07-30T06:52:27;12.00;;;5.50;;
57341;SDS011;43175;51.002;18.316;2022-07-30T06:55:11;12.30;;;4.50;;
57341;SDS011;43175;51.002;18.316;2022-07-30T06:57:55;11.10;;;4.50;;
57341;SDS011;43175;51.002;18.316;2022-07-30T07:00:39;10.70;;;4.70;;
57341;SDS011;43175;51.002;18.316;2022-07-30T07:03:26;13.40;;;7.00;;
57341;SDS011;43175;51.002;18.316;2022-07-30T07:06:10;17.80;;;9.50;;
57341;SDS011;43175;51.002;18.316;2022-07-30T07:08:54;14.00;;;5.80;;
57341;SDS011;43175;51.002;18.316;2022-07-30T07:11:38;11.90;;;5.10;;
57341;SDS011;43175;51.002;18.316;2022-07-30T07:14:22;13.30;;;4.60;;
57341;SDS011;43175;51.002;18.316;2022-07-30T07:17:07;11.40;;;4.60;;
57341;SDS011;43175;51.002;18.316;2022-07-30T07:19:51;11.10;;;4.40;;
57341;SDS011;43175;51.002;18.316;2022-07-30T07:22:35;12.40;;;4.90;;
57341;SDS011;43175;51.002;18.316;2022-07-30T07:25:19;13.70;;;4.60;;
57341;SDS011;43175;51.002;18.316;2022-07-30T07:28:03;11.80;;;4.80;;
57341;SDS011;43175;51.002;18.316;2022-07-30T07:30:48;14.40;;;4.90;;
57341;SDS011;43175;51.002;18.316;2022-07-30T07:33:32;10.80;;;4.60;;
57341;SDS011;43175;51.002;18.316;2022-07-30T07:36:16;13.50;;;5.00;;
57341;SDS011;43175;51.002;18.316;2022-07-30T07:39:01;11.00;;;4.80;;
57341;SDS011;43175;51.002;18.316;2022-07-30T07:41:45;10.50;;;4.40;;
57341;SDS011;43175;51.002;18.316;2022-07-30T07:44:29;11.40;;;4.60;;
57341;SDS011;43175;51.002;18.316;2022-07-30T07:47:13;11.30;;;4.70;;
57341;SDS011;43175;51.002;18.316;2022-07-30T07:49:57;11.70;;;4.80;;
57341;SDS011;43175;51.002;18.316;2022-07-30T07:52:41;12.30;;;4.80;;
57341;SDS011;43175;51.002;18.316;2022-07-30T07:55:25;14.30;;;4.70;;
57341;SDS011;43175;51.002;18.316;2022-07-30T07:58:09;12.10;;;4.50;;
57341;SDS011;43175;51.002;18.316;2022-07-30T08:00:56;11.90;;;4.80;;
57341;SDS011;43175;51.002;18.316;2022-07-30T08:03:40;12.40;;;4.90;;
57341;SDS011;43175;51.002;18.316;2022-07-30T08:06:24;12.20;;;4.50;;
57341;SDS011;43175;51.002;18.316;2022-07-30T08:09:08;11.50;;;4.50;;
57341;SDS011;43175;51.002;18.316;2022-07-30T08:11:52;11.70;;;4.70;;
57341;SDS011;43175;51.002;18.316;2022-07-30T08:14:36;9.20;;;4.10;;
57341;SDS011;43175;51.002;18.316;2022-07-30T08:17:20;11.20;;;4.80;;
57341;SDS011;43175;51.002;18.316;2022-07-30T08:20:05;11.00;;;4.60;;
57341;SDS011;43175;51.002;18.316;2022-07-30T08:22:49;11.50;;;4.50;;
57341;SDS011;43175;51.002;18.316;2022-07-30T08:25:34;13.00;;;4.80;;
57341;SDS011;43175;51.002;18.316;2022-07-30T08:28:18;10.60;;;4.80;;
57341;SDS011;43175;51.002;18.316;2022-07-30T08:31:02;11.80;;;4.60;;
57341;SDS011;43175;51.002;18.316;2022-07-30T08:33:46;11.30;;;4.60;;
57341;SDS011;43175;51.002;18.316;2022-07-30T08:36:30;11.20;;;4.40;;
57341;SDS011;43175;51.002;18.316;2022-07-30T08:39:14;13.60;;;4.80;;
57341;SDS011;43175;51.002;18.316;2022-07-30T08:41:58;12.30;;;4.50;;
57341;SDS011;43175;51.002;18.316;2022-07-30T08:44:44;10.60;;;4.70;;
57341;SDS011;43175;51.002;18.316;2022-07-30T08:47:30;10.90;;;4.90;;
57341;SDS011;43175;51.002;18.316;2022-07-30T08:50:16;10.00;;;4.60;;
57341;SDS011;43175;51.002;18.316;2022-07-30T08:53:00;10.60;;;4.70;;
57341;SDS011;43175;51.002;18.316;2022-07-30T08:55:45;10.70;;;4.50;;
57341;SDS011;43175;51.002;18.316;2022-07-30T08:58:31;11.50;;;4.50;;
57341;SDS011;43175;51.002;18.316;2022-07-30T09:01:19;10.00;;;4.60;;
57341;SDS011;43175;51.002;18.316;2022-07-30T09:04:03;10.30;;;4.30;;
57341;SDS011;43175;51.002;18.316;2022-07-30T09:06:47;9.90;;;4.70;;
57341;SDS011;43175;51.002;18.316;2022-07-30T09:09:32;12.10;;;4.60;;
57341;SDS011;43175;51.002;18.316;2022-07-30T09:12:36;11.30;;;4.80;;
57341;SDS011;43175;51.002;18.316;2022-07-30T09:15:25;11.20;;;4.50;;
57341;SDS011;43175;51.002;18.316;2022-07-30T09:18:09;10.40;;;4.60;;
57341;SDS011;43175;51.002;18.316;2022-07-30T09:20:54;9.30;;;4.20;;
57341;SDS011;43175;51.002;18.316;2022-07-30T09:23:38;11.30;;;5.50;;
57341;SDS011;43175;51.002;18.316;2022-07-30T09:26:22;16.30;;;9.60;;
57341;SDS011;43175;51.002;18.316;2022-07-30T09:29:20;11.20;;;5.10;;
57341;SDS011;43175;51.002;18.316;2022-07-30T09:32:06;11.80;;;5.60;;
57341;SDS011;43175;51.002;18.316;2022-07-30T09:34:51;13.00;;;6.10;;
57341;SDS011;43175;51.002;18.316;2022-07-30T09:37:36;11.10;;;5.00;;
57341;SDS011;43175;51.002;18.316;2022-07-30T09:40:20;11.60;;;5.10;;
57341;SDS011;43175;51.002;18.316;2022-07-30T09:43:08;11.50;;;4.80;;
57341;SDS011;43175;51.002;18.316;2022-07-30T09:45:54;11.80;;;4.80;;
57341;SDS011;43175;51.002;18.316;2022-07-30T09:48:41;13.50;;;5.40;;
57341;SDS011;43175;51.002;18.316;2022-07-30T09:51:36;11.90;;;5.20;;
57341;SDS011;43175;51.002;18.316;2022-07-30T09:54:22;10.00;;;4.70;;
57341;SDS011;43175;51.002;18.316;2022-07-30T09:57:06;13.00;;;5.10;;
57341;SDS011;43175;51.002;18.316;2022-07-30T09:59:51;13.50;;;5.20;;
57341;SDS011;43175;51.002;18.316;2022-07-30T10:02:35;10.80;;;5.30;;
57341;SDS011;43175;51.002;18.316;2022-07-30T10:05:20;10.30;;;4.80;;
57341;SDS011;43175;51.002;18.316;2022-07-30T10:08:04;11.20;;;5.10;;
57341;SDS011;43175;51.002;18.316;2022-07-30T10:10:50;10.50;;;4.90;;
57341;SDS011;43175;51.002;18.316;2022-07-30T10:13:34;10.90;;;5.20;;
57341;SDS011;43175;51.002;18.316;2022-07-30T10:16:19;10.20;;;5.00;;
57341;SDS011;43175;51.002;18.316;2022-07-30T10:19:03;9.90;;;4.80;;
57341;SDS011;43175;51.002;18.316;2022-07-30T10:21:50;11.50;;;4.90;;
57341;SDS011;43175;51.002;18.316;2022-07-30T10:24:35;11.30;;;5.00;;
57341;SDS011;43175;51.002;18.316;2022-07-30T10:27:20;10.20;;;4.80;;
57341;SDS011;43175;51.002;18.316;2022-07-30T10:30:05;12.20;;;4.80;;
57341;SDS011;43175;51.002;18.316;2022-07-30T10:32:49;10.20;;;4.90;;
57341;SDS011;43175;51.002;18.316;2022-07-30T10:35:34;11.00;;;4.90;;
57341;SDS011;43175;51.002;18.316;2022-07-30T10:38:20;10.30;;;5.00;;
57341;SDS011;43175;51.002;18.316;2022-07-30T10:41:14;12.10;;;5.30;;
57341;SDS011;43175;51.002;18.316;2022-07-30T10:44:24;12.00;;;5.10;;
57341;SDS011;43175;51.002;18.316;2022-07-30T10:47:11;10.80;;;5.20;;
57341;SDS011;43175;51.002;18.316;2022-07-30T10:50:09;11.30;;;5.30;;
57341;SDS011;43175;51.002;18.316;2022-07-30T10:52:56;13.50;;;5.00;;
57341;SDS011;43175;51.002;18.316;2022-07-30T10:55:43;11.60;;;5.20;;
57341;SDS011;43175;51.002;18.316;2022-07-30T10:58:27;12.50;;;5.70;;
57341;SDS011;43175;51.002;18.316;2022-07-30T11:01:11;11.60;;;5.10;;
57341;SDS011;43175;51.002;18.316;2022-07-30T11:13:17;11.00;;;5.40;;
57341;SDS011;43175;51.002;18.316;2022-07-30T11:16:01;10.90;;;5.70;;
57341;SDS011;43175;51.002;18.316;2022-07-30T11:25:08;11.80;;;5.80;;
57341;SDS011;43175;51.002;18.316;2022-07-30T11:27:56;10.40;;;5.50;;
57341;SDS011;43175;51.002;18.316;2022-07-30T11:30:40;13.90;;;5.80;;
57341;SDS011;43175;51.002;18.316;2022-07-30T11:33:24;10.30;;;5.50;;
57341;SDS011;43175;51.002;18.316;2022-07-30T11:36:10;13.30;;;6.00;;
57341;SDS011;43175;51.002;18.316;2022-07-30T11:38:56;13.40;;;5.90;;
57341;SDS011;43175;51.002;18.316;2022-07-30T11:41:41;12.10;;;5.60;;
57341;SDS011;43175;51.002;18.316;2022-07-30T11:44:26;11.50;;;5.80;;
57341;SDS011;43175;51.002;18.316;2022-07-30T11:47:13;10.90;;;5.70;;
57341;SDS011;43175;51.002;18.316;2022-07-30T11:49:57;12.70;;;5.60;;
57341;SDS011;43175;51.002;18.316;2022-07-30T11:52:41;14.80;;;5.90;;
57341;SDS011;43175;51.002;18.316;2022-07-30T11:58:24;15.30;;;6.40;;
57341;SDS011;43175;51.002;18.316;2022-07-30T12:01:15;13.10;;;5.90;;
57341;SDS011;43175;51.002;18.316;2022-07-30T12:04:04;14.30;;;6.30;;
57341;SDS011;43175;51.002;18.316;2022-07-30T12:06:49;12.00;;;6.30;;
57341;SDS011;43175;51.002;18.316;2022-07-30T12:09:33;11.30;;;6.00;;
57341;SDS011;43175;51.002;18.316;2022-07-30T12:12:20;12.30;;;6.20;;
57341;SDS011;43175;51.002;18.316;2022-07-30T12:15:07;12.80;;;6.10;;
57341;SDS011;43175;51.002;18.316;2022-07-30T12:17:52;14.90;;;6.30;;
57341;SDS011;43175;51.002;18.316;2022-07-30T12:20:36;13.50;;;6.40;;
57341;SDS011;43175;51.002;18.316;2022-07-30T12:23:20;13.70;;;6.40;;
57341;SDS011;43175;51.002;18.316;2022-07-30T12:26:04;14.90;;;7.00;;
57341;SDS011;43175;51.002;18.316;2022-07-30T12:28:48;13.30;;;7.40;;
57341;SDS011;43175;51.002;18.316;2022-07-30T12:31:33;16.70;;;7.60;;
57341;SDS011;43175;51.002;18.316;2022-07-30T12:34:18;13.80;;;8.00;;
57341;SDS011;43175;51.002;18.316;2022-07-30T12:37:08;13.80;;;7.80;;
57341;SDS011;43175;51.002;18.316;2022-07-30T12:42:50;14.80;;;8.60;;
57341;SDS011;43175;51.002;18.316;2022-07-30T12:45:35;15.10;;;8.80;;
57341;SDS011;43175;51.002;18.316;2022-07-30T12:48:19;15.80;;;8.40;;
57341;SDS011;43175;51.002;18.316;2022-07-30T12:51:07;14.40;;;8.30;;
57341;SDS011;43175;51.002;18.316;2022-07-30T12:53:52;13.60;;;8.20;;
57341;SDS011;43175;51.002;18.316;2022-07-30T12:56:38;13.80;;;9.00;;
57341;SDS011;43175;51.002;18.316;2022-07-30T12:59:23;14.20;;;8.70;;
57341;SDS011;43175;51.002;18.316;2022-07-30T13:02:08;14.30;;;9.30;;
57341;SDS011;43175;51.002;18.316;2022-07-30T13:04:52;15.30;;;9.30;;
57341;SDS011;43175;51.002;18.316;2022-07-30T13:07:57;16.20;;;9.60;;
57341;SDS011;43175;51.002;18.316;2022-07-30T13:10:56;15.30;;;9.40;;
57341;SDS011;43175;51.002;18.316;2022-07-30T13:13:42;16.60;;;10.20;;
57341;SDS011;43175;51.002;18.316;2022-07-30T13:16:29;15.70;;;10.30;;
57341;SDS011;43175;51.002;18.316;2022-07-30T13:19:14;15.70;;;10.00;;
57341;SDS011;43175;51.002;18.316;2022-07-30T13:21:58;17.70;;;10.80;;
57341;SDS011;43175;51.002;18.316;2022-07-30T13:24:42;17.20;;;11.10;;
57341;SDS011;43175;51.002;18.316;2022-07-30T13:27:26;18.10;;;11.40;;
57341;SDS011;43175;51.002;18.316;2022-07-30T13:30:12;17.50;;;11.20;;
57341;SDS011;43175;51.002;18.316;2022-07-30T13:32:57;19.00;;;11.80;;
57341;SDS011;43175;51.002;18.316;2022-07-30T13:35:41;19.80;;;11.70;;
57341;SDS011;43175;51.002;18.316;2022-07-30T13:38:26;19.80;;;12.20;;
57341;SDS011;43175;51.002;18.316;2022-07-30T13:41:11;18.60;;;11.80;;
57341;SDS011;43175;51.002;18.316;2022-07-30T13:43:55;16.60;;;11.80;;
57341;SDS011;43175;51.002;18.316;2022-07-30T13:46:39;17.10;;;12.70;;
57341;SDS011;43175;51.002;18.316;2022-07-30T13:49:23;18.30;;;13.30;;
57341;SDS011;43175;51.002;18.316;2022-07-30T13:52:07;19.80;;;14.10;;
57341;SDS011;43175;51.002;18.316;2022-07-30T13:54:51;24.90;;;14.80;;
57341;SDS011;43175;51.002;18.316;2022-07-30T13:57:37;19.70;;;13.20;;
57341;SDS011;43175;51.002;18.316;2022-07-30T14:00:21;19.90;;;13.80;;
57341;SDS011;43175;51.002;18.316;2022-07-30T14:03:06;19.80;;;14.10;;
57341;SDS011;43175;51.002;18.316;2022-07-30T14:05:51;18.40;;;12.70;;
57341;SDS011;43175;51.002;18.316;2022-07-30T14:08:36;20.20;;;13.70;;
57341;SDS011;43175;51.002;18.316;2022-07-30T14:11:20;19.90;;;14.60;;
57341;SDS011;43175;51.002;18.316;2022-07-30T14:14:04;17.80;;;11.70;;
57341;SDS011;43175;51.002;18.316;2022-07-30T14:16:48;22.10;;;13.00;;
57341;SDS011;43175;51.002;18.316;2022-07-30T14:19:33;16.30;;;11.90;;
57341;SDS011;43175;51.002;18.316;2022-07-30T14:22:17;16.40;;;11.40;;
57341;SDS011;43175;51.002;18.316;2022-07-30T14:25:01;17.90;;;11.50;;
57341;SDS011;43175;51.002;18.316;2022-07-30T14:27:45;18.30;;;11.20;;
57341;SDS011;43175;51.002;18.316;2022-07-30T14:30:30;16.50;;;11.30;;
57341;SDS011;43175;51.002;18.316;2022-07-30T14:33:14;18.80;;;12.00;;
57341;SDS011;43175;51.002;18.316;2022-07-30T14:35:58;15.70;;;10.80;;
57341;SDS011;43175;51.002;18.316;2022-07-30T14:38:42;15.60;;;10.90;;
57341;SDS011;43175;51.002;18.316;2022-07-30T14:41:27;16.50;;;10.40;;
57341;SDS011;43175;51.002;18.316;2022-07-30T14:44:11;17.50;;;10.70;;
57341;SDS011;43175;51.002;18.316;2022-07-30T14:46:56;17.10;;;11.30;;
57341;SDS011;43175;51.002;18.316;2022-07-30T14:49:40;16.80;;;11.50;;
57341;SDS011;43175;51.002;18.316;2022-07-30T14:52:24;16.50;;;11.40;;
57341;SDS011;43175;51.002;18.316;2022-07-30T14:55:08;17.00;;;12.30;;
57341;SDS011;43175;51.002;18.316;2022-07-30T14:57:53;17.80;;;12.40;;
57341;SDS011;43175;51.002;18.316;2022-07-30T15:00:37;18.40;;;11.60;;
57341;SDS011;43175;51.002;18.316;2022-07-30T15:03:21;18.00;;;12.30;;
57341;SDS011;43175;51.002;18.316;2022-07-30T15:06:05;16.50;;;12.40;;
57341;SDS011;43175;51.002;18.316;2022-07-30T15:08:52;17.50;;;11.50;;
57341;SDS011;43175;51.002;18.316;2022-07-30T15:11:36;17.20;;;12.10;;
57341;SDS011;43175;51.002;18.316;2022-07-30T15:14:20;21.40;;;12.70;;
57341;SDS011;43175;51.002;18.316;2022-07-30T15:17:05;16.80;;;11.80;;
57341;SDS011;43175;51.002;18.316;2022-07-30T15:19:49;16.90;;;12.10;;
57341;SDS011;43175;51.002;18.316;2022-07-30T15:22:33;16.20;;;12.30;;
57341;SDS011;43175;51.002;18.316;2022-07-30T15:25:18;18.80;;;12.00;;
57341;SDS011;43175;51.002;18.316;2022-07-30T15:28:03;20.00;;;13.30;;
57341;SDS011;43175;51.002;18.316;2022-07-30T15:30:47;19.70;;;12.90;;
57341;SDS011;43175;51.002;18.316;2022-07-30T15:33:31;18.00;;;12.30;;
57341;SDS011;43175;51.002;18.316;2022-07-30T15:36:15;17.40;;;12.60;;
57341;SDS011;43175;51.002;18.316;2022-07-30T15:38:59;17.10;;;12.30;;
57341;SDS011;43175;51.002;18.316;2022-07-30T15:41:44;17.90;;;12.20;;
57341;SDS011;43175;51.002;18.316;2022-07-30T15:44:28;18.80;;;12.40;;
57341;SDS011;43175;51.002;18.316;2022-07-30T15:47:12;20.20;;;13.80;;
57341;SDS011;43175;51.002;18.316;2022-07-30T15:49:56;19.10;;;13.30;;
57341;SDS011;43175;51.002;18.316;2022-07-30T15:52:41;17.30;;;13.40;;
57341;SDS011;43175;51.002;18.316;2022-07-30T15:55:25;16.70;;;12.90;;
57341;SDS011;43175;51.002;18.316;2022-07-30T15:58:09;15.10;;;11.00;;
57341;SDS011;43175;51.002;18.316;2022-07-30T16:00:53;12.90;;;8.50;;
57341;SDS011;43175;51.002;18.316;2022-07-30T16:03:37;11.60;;;7.50;;
57341;SDS011;43175;51.002;18.316;2022-07-30T16:06:22;12.80;;;7.50;;
57341;SDS011;43175;51.002;18.316;2022-07-30T16:09:06;12.30;;;7.10;;
57341;SDS011;43175;51.002;18.316;2022-07-30T16:11:50;11.30;;;6.30;;
57341;SDS011;43175;51.002;18.316;2022-07-30T16:14:34;11.70;;;5.80;;
57341;SDS011;43175;51.002;18.316;2022-07-30T16:17:18;10.40;;;5.40;;
57341;SDS011;43175;51.002;18.316;2022-07-30T16:20:03;16.40;;;5.50;;
57341;SDS011;43175;51.002;18.316;2022-07-30T16:22:48;10.00;;;4.80;;
57341;SDS011;43175;51.002;18.316;2022-07-30T16:25:32;9.70;;;4.00;;
57341;SDS011;43175;51.002;18.316;2022-07-30T16:28:17;9.70;;;3.80;;
57341;SDS011;43175;51.002;18.316;2022-07-30T16:31:01;9.00;;;3.50;;
57341;SDS011;43175;51.002;18.316;2022-07-30T16:33:45;8.40;;;3.60;;